Time;durP1;ratioP1;P1;durP2;ratioP2;P2;SDS_P1;SDS_P2;PMS_P1;PMS_P2;Temp;Humidity;BMP_temperature;BMP_pressure;BME280_temperature;BME280_humidity;BME280_pressure;Samples;Min_cycle;Max_cycle;Signal;HPM_P1;HPM_P2
2023/07/03 00:01:26;;;;;;;11.95;5.30;;;18.40;72.70;;;;;;4864032;29;20045;-93
2023/07/03 00:03:53;;;;;;;12.60;5.60;;;18.40;72.80;;;;;;4864099;29;20061;-94
2023/07/03 00:06:20;;;;;;;11.98;5.38;;;18.30;73.20;;;;;;4863946;29;20117;-93
2023/07/03 00:08:47;;;;;;;8.55;4.80;;;18.30;73.20;;;;;;4863930;29;20058;-93
2023/07/03 00:11:14;;;;;;;9.98;5.68;;;18.30;73.30;;;;;;4863967;29;20512;-93
2023/07/03 00:13:41;;;;;;;9.30;5.10;;;18.20;73.20;;;;;;4863939;29;20054;-93
2023/07/03 00:16:08;;;;;;;9.40;4.87;;;18.30;73.30;;;;;;4863613;29;20389;-94
2023/07/03 00:18:35;;;;;;;9.63;4.82;;;18.20;73.60;;;;;;4863958;29;20059;-93
2023/07/03 00:21:02;;;;;;;8.73;4.70;;;18.20;73.70;;;;;;4863577;29;20046;-93
2023/07/03 00:23:29;;;;;;;10.38;4.72;;;18.10;73.60;;;;;;4863728;29;20056;-93
2023/07/03 00:25:57;;;;;;;11.45;4.75;;;18.10;73.50;;;;;;4863485;29;20088;-93
2023/07/03 00:28:24;;;;;;;10.83;4.73;;;18.10;73.80;;;;;;4863670;29;20109;-93
2023/07/03 00:30:51;;;;;;;8.77;5.07;;;18.10;73.60;;;;;;4863559;29;20461;-92
2023/07/03 00:33:18;;;;;;;11.27;4.60;;;18.00;73.60;;;;;;4863284;29;20077;-93
2023/07/03 00:35:45;;;;;;;9.07;4.78;;;18.00;73.60;;;;;;4863256;29;20057;-93
2023/07/03 00:38:12;;;;;;;10.32;4.30;;;18.00;73.40;;;;;;4863243;29;20045;-94
2023/07/03 00:40:39;;;;;;;8.93;4.07;;;17.90;73.60;;;;;;4863416;29;20394;-94
2023/07/03 00:43:07;;;;;;;10.02;4.80;;;17.90;73.40;;;;;;4863257;29;20042;-93
2023/07/03 00:45:35;;;;;;;9.35;4.60;;;18.00;73.20;;;;;;4863267;29;20054;-94
2023/07/03 00:48:02;;;;;;;9.82;4.40;;;17.90;73.40;;;;;;4863417;29;20049;-93
2023/07/03 00:50:29;;;;;;;9.70;4.28;;;17.90;73.40;;;;;;4863277;29;20060;-93
2023/07/03 00:53:00;;;;;;;9.87;4.40;;;17.80;73.60;;;;;;4863124;29;20145;-93
2023/07/03 00:55:30;;;;;;;9.20;4.90;;;17.80;73.50;;;;;;4862436;29;20053;-93
2023/07/03 00:57:57;;;;;;;9.00;4.57;;;17.80;73.00;;;;;;4863295;29;20052;-93
2023/07/03 01:00:32;;;;;;;10.05;5.03;;;17.80;73.10;;;;;;4863341;29;20045;-93
2023/07/03 01:03:19;;;;;;;8.77;4.93;;;17.70;73.70;;;;;;4863072;29;20479;-93
2023/07/03 01:05:49;;;;;;;11.87;4.83;;;17.60;74.20;;;;;;4863074;29;20153;-93
2023/07/03 01:08:19;;;;;;;8.68;4.93;;;17.50;74.30;;;;;;4863085;29;20079;-93
2023/07/03 01:10:47;;;;;;;8.48;4.85;;;17.40;75.40;;;;;;4862969;29;20148;-93
2023/07/03 01:13:16;;;;;;;9.73;4.55;;;17.20;76.00;;;;;;4862993;29;20462;-93
2023/07/03 01:15:44;;;;;;;11.20;5.03;;;17.10;76.20;;;;;;4862761;29;20042;-93
2023/07/03 01:18:12;;;;;;;8.37;4.97;;;17.20;76.40;;;;;;4862838;29;20053;-93
2023/07/03 01:20:48;;;;;;;10.63;5.15;;;17.10;76.70;;;;;;4862938;29;20050;-93
2023/07/03 01:23:18;;;;;;;9.55;4.93;;;17.10;76.80;;;;;;4862602;29;20094;-94
2023/07/03 01:25:48;;;;;;;8.43;4.50;;;17.00;76.90;;;;;;4862749;29;20096;-93
2023/07/03 01:28:19;;;;;;;9.75;5.00;;;17.00;77.20;;;;;;4862764;29;20050;-93
2023/07/03 01:30:48;;;;;;;8.60;5.10;;;16.90;77.70;;;;;;4862517;29;20147;-93
2023/07/03 01:33:21;;;;;;;8.50;5.10;;;16.80;78.00;;;;;;4862499;29;20536;-93
2023/07/03 01:35:50;;;;;;;8.23;5.00;;;16.80;78.00;;;;;;4862453;29;20513;-94
2023/07/03 01:38:20;;;;;;;9.13;5.13;;;16.80;78.00;;;;;;4862413;29;20077;-94
2023/07/03 01:40:48;;;;;;;8.18;4.65;;;16.70;78.20;;;;;;4862507;29;20445;-93
2023/07/03 01:43:15;;;;;;;8.83;5.13;;;16.70;78.50;;;;;;4862594;29;20045;-93
2023/07/03 01:45:48;;;;;;;9.50;4.60;;;16.70;78.30;;;;;;4862298;29;20057;-94
2023/07/03 01:48:18;;;;;;;10.13;4.85;;;16.60;78.40;;;;;;4862436;29;20049;-93
2023/07/03 01:50:47;;;;;;;7.75;4.82;;;16.50;78.70;;;;;;4861949;29;20066;-93
2023/07/03 01:53:25;;;;;;;8.52;4.53;;;16.40;78.70;;;;;;4862294;29;20046;-93
2023/07/03 01:56:18;;;;;;;7.63;4.40;;;16.30;78.80;;;;;;4862057;29;20066;-93
2023/07/03 01:58:59;;;;;;;7.72;4.28;;;16.30;78.70;;;;;;4862042;29;20508;-93
2023/07/03 02:08:12;;;;;;;8.40;4.93;;;16.20;78.90;;;;;;5018725;23;20084;-96
2023/07/03 02:10:43;;;;;;;10.50;4.83;;;16.30;78.60;;;;;;4887134;29;20133;-96
2023/07/03 02:13:18;;;;;;;8.70;4.55;;;16.30;78.20;;;;;;4901540;29;20116;-96
2023/07/03 02:17:09;;;;;;;7.50;4.40;;;16.30;78.00;;;;;;4870522;29;20064;-96
2023/07/03 02:19:40;;;;;;;8.05;4.43;;;16.20;78.40;;;;;;4876623;29;20538;-96
2023/07/03 02:22:09;;;;;;;9.75;4.25;;;16.00;78.50;;;;;;4863318;29;20069;-96
2023/07/03 02:24:44;;;;;;;9.07;4.30;;;16.00;78.60;;;;;;4865317;29;20067;-96
2023/07/03 02:51:50;;;;;;;8.05;4.93;;;15.60;79.20;;;;;;5503002;23;20055;-96
2023/07/03 02:57:51;;;;;;;8.23;4.87;;;15.60;79.30;;;;;;5115009;23;20076;-96
2023/07/03 03:00:18;;;;;;;8.32;4.53;;;15.70;79.10;;;;;;4874318;29;20050;-96
2023/07/03 03:02:48;;;;;;;8.77;4.28;;;15.70;78.90;;;;;;4874521;29;20510;-96
2023/07/03 03:05:18;;;;;;;8.68;4.25;;;15.70;79.00;;;;;;4878093;29;20055;-96
2023/07/03 03:11:38;;;;;;;8.93;4.70;;;15.70;78.80;;;;;;5042166;23;20083;-96
2023/07/03 03:14:09;;;;;;;10.20;4.78;;;15.70;78.70;;;;;;4877845;29;20096;-96
2023/07/03 03:16:37;;;;;;;12.88;4.97;;;15.60;78.80;;;;;;4878668;29;20057;-96
2023/07/03 03:19:04;;;;;;;8.65;4.60;;;15.60;78.90;;;;;;4878114;29;20053;-96
2023/07/03 03:21:32;;;;;;;9.05;4.93;;;15.60;78.60;;;;;;4893944;29;20060;-96
2023/07/03 03:24:00;;;;;;;8.97;4.40;;;15.50;78.60;;;;;;4878279;29;20051;-96
2023/07/03 03:26:28;;;;;;;9.15;4.45;;;15.50;78.60;;;;;;4893831;29;20060;-96
2023/07/03 03:28:57;;;;;;;7.45;4.22;;;15.40;78.70;;;;;;4893699;29;20049;-96
2023/07/03 03:31:27;;;;;;;8.15;4.20;;;15.50;78.70;;;;;;4894588;29;20064;-96
2023/07/03 03:33:59;;;;;;;8.98;4.13;;;15.50;78.60;;;;;;4881189;29;20048;-96
2023/07/03 03:36:27;;;;;;;8.33;4.40;;;15.50;78.60;;;;;;4891633;29;20044;-96
2023/07/03 03:38:55;;;;;;;8.98;4.10;;;15.50;78.90;;;;;;4875260;29;20107;-96
2023/07/03 03:41:23;;;;;;;12.10;4.82;;;15.50;78.90;;;;;;4889863;29;20059;-96
2023/07/03 03:43:51;;;;;;;8.73;4.68;;;15.50;78.80;;;;;;4889879;29;20045;-96
2023/07/03 03:46:22;;;;;;;8.68;4.47;;;15.50;78.60;;;;;;4892509;29;20124;-96
2023/07/03 03:48:50;;;;;;;8.77;4.70;;;15.50;78.60;;;;;;4876336;29;20541;-96
2023/07/03 03:51:18;;;;;;;8.00;4.13;;;15.50;78.60;;;;;;4875990;29;20056;-96
2023/07/03 03:53:46;;;;;;;8.95;4.72;;;15.50;78.70;;;;;;4889870;29;20126;-96
2023/07/03 03:56:14;;;;;;;6.97;4.28;;;15.60;78.60;;;;;;4882808;29;20060;-95
2023/07/03 03:58:42;;;;;;;8.18;4.53;;;15.60;78.60;;;;;;4868763;29;20460;-96
2023/07/03 04:01:13;;;;;;;7.33;4.23;;;15.70;78.10;;;;;;4883995;29;20055;-96
2023/07/03 04:07:52;;;;;;;9.93;4.70;;;15.70;77.90;;;;;;4914540;29;20132;-96
2023/07/03 04:10:20;;;;;;;10.40;4.90;;;15.70;78.10;;;;;;4877187;29;20061;-96
2023/07/03 04:12:47;;;;;;;8.13;4.30;;;15.80;77.90;;;;;;4861806;29;20045;-96
2023/07/03 04:15:18;;;;;;;8.17;4.47;;;15.80;77.90;;;;;;4863769;29;20068;-96
2023/07/03 04:17:47;;;;;;;7.45;3.67;;;15.90;77.50;;;;;;4866346;29;20049;-96
2023/07/03 04:21:41;;;;;;;8.10;4.00;;;16.00;77.10;;;;;;4873944;29;20055;-96
2023/07/03 04:24:11;;;;;;;6.95;3.80;;;16.00;77.10;;;;;;4855373;29;20045;-96
2023/07/03 04:26:54;;;;;;;6.15;3.28;;;16.10;77.20;;;;;;4858031;29;20060;-96
2023/07/03 04:29:23;;;;;;;8.53;4.30;;;16.20;76.70;;;;;;4860649;29;20076;-96
2023/07/03 04:32:30;;;;;;;7.65;3.83;;;16.30;75.90;;;;;;4968543;23;20082;31
2023/07/03 04:35:00;;;;;;;9.07;4.15;;;16.50;75.70;;;;;;5177322;24;20064;-96
2023/07/03 04:37:51;;;;;;;7.78;4.35;;;16.60;75.80;;;;;;4866878;29;20064;-96
2023/07/03 04:40:20;;;;;;;9.73;4.32;;;16.70;74.90;;;;;;4866571;29;20105;-96
2023/07/03 04:42:49;;;;;;;7.67;3.93;;;16.80;75.20;;;;;;4847741;29;20057;-96
2023/07/03 04:45:24;;;;;;;7.13;4.10;;;16.90;75.00;;;;;;4863588;29;20045;-96
2023/07/03 04:47:57;;;;;;;8.63;3.70;;;17.00;74.80;;;;;;4845393;29;20125;-96
2023/07/03 04:50:29;;;;;;;7.40;3.72;;;17.00;74.20;;;;;;4845259;29;20053;-96
2023/07/03 04:52:56;;;;;;;7.82;3.70;;;16.90;74.50;;;;;;4840956;29;20053;-96
2023/07/03 04:55:25;;;;;;;7.37;4.00;;;16.90;75.00;;;;;;4841980;29;20053;-96
2023/07/03 04:57:53;;;;;;;7.90;3.90;;;17.00;74.60;;;;;;4856003;29;20148;-96
2023/07/03 05:00:21;;;;;;;8.05;3.92;;;17.20;74.10;;;;;;4842246;29;20045;-96
2023/07/03 05:02:52;;;;;;;7.38;3.90;;;17.40;73.60;;;;;;4859735;29;20061;-96
2023/07/03 05:05:20;;;;;;;8.95;4.18;;;17.60;73.00;;;;;;4844930;29;20053;-96
2023/07/03 05:07:49;;;;;;;7.17;3.70;;;17.70;73.00;;;;;;4860530;29;20054;-96
2023/07/03 05:10:18;;;;;;;6.82;3.97;;;18.00;72.20;;;;;;4844018;29;20049;-94
2023/07/03 05:12:45;;;;;;;9.65;3.30;;;18.10;71.80;;;;;;4847464;29;20053;-94
2023/07/03 05:15:14;;;;;;;7.60;3.45;;;18.10;71.60;;;;;;4847397;29;20504;-94
2023/07/03 05:17:42;;;;;;;8.93;3.90;;;18.10;71.90;;;;;;4832009;29;20045;-93
2023/07/03 05:20:12;;;;;;;6.50;3.80;;;18.00;72.00;;;;;;4847597;29;20560;-94
2023/07/03 05:22:42;;;;;;;8.63;3.95;;;18.00;72.60;;;;;;4847675;29;20053;-94
2023/07/03 05:25:11;;;;;;;8.18;3.90;;;18.10;72.70;;;;;;4848044;29;20417;-94
2023/07/03 05:27:39;;;;;;;6.85;3.92;;;18.40;71.80;;;;;;4847757;29;20050;-94
2023/07/03 05:30:07;;;;;;;12.98;4.30;;;18.70;71.00;;;;;;4847880;29;20049;-94
2023/07/03 05:32:34;;;;;;;11.57;3.80;;;18.90;70.30;;;;;;4847716;29;20524;-94
2023/07/03 05:35:04;;;;;;;8.25;3.65;;;19.00;69.60;;;;;;4847529;29;20500;-93
2023/07/03 05:37:31;;;;;;;7.35;3.67;;;19.10;69.60;;;;;;4847401;29;20046;-94
2023/07/03 05:39:58;;;;;;;6.55;4.10;;;19.30;68.80;;;;;;4847140;29;20053;-95
2023/07/03 05:42:25;;;;;;;8.65;4.10;;;19.50;69.00;;;;;;4847398;29;20101;-94
2023/07/03 05:44:52;;;;;;;8.57;3.67;;;19.70;68.30;;;;;;4847431;29;20053;-95
2023/07/03 05:47:20;;;;;;;8.85;4.00;;;19.90;67.70;;;;;;4847739;29;20054;-94
2023/07/03 05:49:49;;;;;;;6.88;4.45;;;20.00;67.40;;;;;;4847861;29;20054;-94
2023/07/03 05:52:16;;;;;;;10.15;3.97;;;20.10;66.90;;;;;;4847584;29;20085;-96
2023/07/03 06:07:05;;;;;;;7.63;3.60;;;20.60;63.70;;;;;;5539626;23;20027;-96
2023/07/03 06:09:36;;;;;;;6.63;3.50;;;20.80;64.30;;;;;;4893529;29;20112;-96
2023/07/03 06:48:13;;;;;;;10.57;4.67;;;23.00;53.60;;;;;;5178111;23;20064;-96
2023/07/03 06:54:15;;;;;;;12.52;4.97;;;23.10;49.60;;;;;;5187158;23;20068;-96
2023/07/03 06:56:56;;;;;;;14.65;5.03;;;23.00;48.70;;;;;;4888133;29;20164;-96
2023/07/03 06:59:27;;;;;;;12.48;5.13;;;23.10;50.20;;;;;;4881999;29;20059;-96
2023/07/03 07:02:01;;;;;;;11.07;5.33;;;23.20;49.60;;;;;;4884377;29;20048;-96
2023/07/03 07:04:36;;;;;;;14.55;5.72;;;23.40;48.90;;;;;;4898545;29;20024;-96
2023/07/03 07:11:38;;;;;;;14.60;5.57;;;23.60;50.40;;;;;;4915290;29;20063;-95
2023/07/03 07:16:04;;;;;;;12.77;6.40;;;23.60;47.10;;;;;;4850172;29;20141;-96
2023/07/03 07:18:31;;;;;;;15.37;6.97;;;23.80;48.70;;;;;;4845986;29;20142;-96
2023/07/03 07:21:00;;;;;;;15.30;7.25;;;23.90;47.00;;;;;;4831258;29;20107;-96
2023/07/03 07:23:27;;;;;;;18.83;7.35;;;24.00;43.50;;;;;;4832412;29;20136;-96
2023/07/03 07:25:56;;;;;;;21.98;7.43;;;24.00;44.90;;;;;;4819337;29;20050;-95
2023/07/03 07:28:24;;;;;;;24.52;7.43;;;24.00;44.90;;;;;;4819047;29;20093;-96
2023/07/03 07:30:52;;;;;;;15.53;6.87;;;24.00;43.60;;;;;;4816221;29;20145;-95
2023/07/03 07:33:35;;;;;;;16.08;6.72;;;24.00;44.80;;;;;;4833062;29;20145;-96
2023/07/03 07:40:43;;;;;;;13.40;7.10;;;24.10;45.60;;;;;;4849630;29;20078;-96
2023/07/03 07:43:31;;;;;;;14.68;7.28;;;24.20;44.10;;;;;;4832693;29;20100;-96
2023/07/03 07:49:51;;;;;;;15.48;7.10;;;24.20;43.60;;;;;;5994209;23;20937;-96
2023/07/03 07:52:28;;;;;;;15.65;7.38;;;24.30;45.20;;;;;;4867499;29;20057;-97
2023/07/03 07:55:10;;;;;;;18.60;8.10;;;24.50;43.90;;;;;;4868064;29;20057;-96
2023/07/03 07:57:59;;;;;;;19.08;8.15;;;24.50;41.00;;;;;;5084353;23;20087;-96
2023/07/03 08:13:41;;;;;;;16.50;7.10;;;24.70;41.10;;;;;;5289200;23;20048;-96
2023/07/03 08:16:15;;;;;;;14.50;6.20;;;24.90;40.90;;;;;;4898728;29;20476;-96
2023/07/03 08:29:21;;;;;;;15.85;6.80;;;25.00;41.70;;;;;;6000555;23;20063;31
2023/07/03 08:36:22;;;;;;;18.30;7.07;;;25.20;40.10;;;;;;5102875;23;20038;-96
2023/07/03 08:39:16;;;;;;;17.50;6.97;;;25.10;42.30;;;;;;4836545;29;20126;-96
2023/07/03 08:54:37;;;;;;;17.25;7.28;;;25.00;41.00;;;;;;4935795;23;20057;-96
2023/07/03 08:57:05;;;;;;;19.98;7.53;;;25.00;40.50;;;;;;4868903;29;20416;-93
2023/07/03 08:59:34;;;;;;;16.95;7.20;;;25.10;40.30;;;;;;4863848;29;20077;-94
2023/07/03 09:02:17;;;;;;;17.10;7.60;;;25.20;41.90;;;;;;4865905;29;20069;-95
2023/07/03 10:02:16;;;;;;;13.25;6.28;;;26.20;42.20;;;;;;1885692;23;20238;-96
2023/07/03 10:17:35;;;;;;;18.42;6.80;;;26.20;39.70;;;;;;4911438;29;20072;-96
2023/07/03 10:24:13;;;;;;;14.32;6.95;;;26.70;38.20;;;;;;5068704;23;20084;-96
2023/07/03 10:26:58;;;;;;;19.17;6.90;;;26.60;39.20;;;;;;5350961;23;20023;-96
2023/07/03 10:36:39;;;;;;;17.95;8.10;;;27.20;40.00;;;;;;5979935;23;20041;-96
2023/07/03 10:41:09;;;;;;;20.77;7.70;;;27.30;39.40;;;;;;4848500;29;20053;-96
2023/07/03 10:44:42;;;;;;;15.43;7.53;;;27.10;37.80;;;;;;4862195;29;20053;-96
2023/07/03 10:47:30;;;;;;;15.13;7.13;;;27.10;39.80;;;;;;4846493;29;20067;-96
2023/07/03 11:17:52;;;;;;;16.37;7.07;;;27.00;38.50;;;;;;1839153;23;20315;-97
2023/07/03 11:20:37;;;;;;;19.10;6.90;;;27.00;39.90;;;;;;4901783;29;20131;-95
2023/07/03 11:23:32;;;;;;;17.02;7.00;;;26.80;40.80;;;;;;4889723;29;20119;-96
2023/07/03 11:26:03;;;;;;;13.95;6.82;;;26.60;40.10;;;;;;5046523;23;20113;-96
2023/07/03 11:28:48;;;;;;;17.77;7.25;;;26.60;40.60;;;;;;4890204;29;20079;-95
2023/07/03 11:31:19;;;;;;;16.30;7.50;;;26.50;40.50;;;;;;4887772;29;20045;-95
2023/07/03 11:33:47;;;;;;;16.33;7.20;;;26.60;40.10;;;;;;4883871;29;20116;-96
2023/07/03 11:36:39;;;;;;;16.25;6.18;;;26.80;41.60;;;;;;4888250;29;20051;-96
2023/07/03 11:39:30;;;;;;;15.95;7.00;;;27.00;39.00;;;;;;4874592;29;20124;-96
2023/07/03 11:46:24;;;;;;;15.17;7.17;;;26.80;39.10;;;;;;4896672;29;20129;-96
2023/07/03 11:53:51;;;;;;;15.65;7.15;;;26.50;42.40;;;;;;4893258;29;20104;-96
2023/07/03 12:20:58;;;;;;;18.07;7.73;;;26.80;41.50;;;;;;5170083;23;20446;-96
2023/07/03 12:29:04;;;;;;;16.70;7.90;;;26.50;42.40;;;;;;4940291;29;20632;-96
2023/07/03 12:31:32;;;;;;;15.02;7.20;;;26.60;42.30;;;;;;4893604;29;20075;-96
2023/07/03 12:34:00;;;;;;;15.35;7.38;;;26.70;42.10;;;;;;4915109;29;20048;-96
2023/07/03 12:36:34;;;;;;;17.13;7.87;;;26.60;41.80;;;;;;4894601;29;20048;-96
2023/07/03 12:43:45;;;;;;;16.55;7.47;;;26.30;43.10;;;;;;4894093;29;20048;-96
2023/07/03 12:46:42;;;;;;;16.40;7.13;;;26.20;42.40;;;;;;4901852;29;20044;-96
2023/07/03 12:49:16;;;;;;;16.38;8.02;;;26.20;42.40;;;;;;4892634;29;20084;-96
2023/07/03 12:51:54;;;;;;;16.33;7.53;;;26.40;42.60;;;;;;4895131;29;20053;-96
2023/07/03 12:54:26;;;;;;;17.98;7.72;;;26.50;42.30;;;;;;4898617;29;20028;-96
2023/07/03 12:56:57;;;;;;;16.98;8.32;;;26.80;42.60;;;;;;4906375;29;20044;-96
2023/07/03 12:59:45;;;;;;;16.08;7.68;;;27.20;40.50;;;;;;4903934;29;20044;-96
2023/07/03 13:06:48;;;;;;;17.00;7.47;;;27.10;40.70;;;;;;4924092;29;20105;-96
2023/07/03 13:09:28;;;;;;;17.70;7.60;;;26.70;42.60;;;;;;4879253;29;20052;-96
2023/07/03 13:11:55;;;;;;;17.08;7.57;;;26.70;42.50;;;;;;4889625;29;20115;-96
2023/07/03 13:14:26;;;;;;;19.27;7.65;;;26.70;41.60;;;;;;4892036;29;20052;-96
2023/07/03 13:16:59;;;;;;;16.48;7.13;;;26.90;41.90;;;;;;4889041;29;20044;-96
2023/07/03 13:19:48;;;;;;;15.97;7.37;;;27.10;42.10;;;;;;4890115;29;20052;-96
2023/07/03 13:22:46;;;;;;;15.85;7.57;;;27.10;40.50;;;;;;4898285;29;20068;-96
2023/07/03 13:25:29;;;;;;;18.90;7.65;;;27.50;40.80;;;;;;4893485;29;20067;-96
2023/07/03 13:27:57;;;;;;;13.48;7.18;;;27.40;40.40;;;;;;4903364;29;20052;-96
2023/07/03 13:30:34;;;;;;;17.02;7.25;;;27.20;39.80;;;;;;4887583;29;20056;-95
2023/07/03 13:33:06;;;;;;;16.23;7.30;;;27.10;41.10;;;;;;4888947;29;20075;-96
2023/07/03 13:35:43;;;;;;;15.27;7.38;;;27.20;42.00;;;;;;4888235;29;20048;-96
2023/07/03 13:38:27;;;;;;;15.75;7.72;;;27.60;40.70;;;;;;4891136;29;20052;-96
2023/07/03 13:40:57;;;;;;;15.10;6.85;;;28.00;40.70;;;;;;4894824;29;20103;-96
2023/07/03 13:43:31;;;;;;;18.00;7.35;;;27.80;39.90;;;;;;4889342;29;20142;-96
2023/07/03 13:45:58;;;;;;;18.90;7.93;;;27.50;40.90;;;;;;4894887;29;20391;-96
2023/07/03 13:48:27;;;;;;;15.80;8.20;;;27.20;40.50;;;;;;4889965;29;20083;-96
2023/07/03 17:27:09;;;;;;;17.87;7.73;;;26.90;42.40;;;;;;5288857;23;20564;-96
2023/07/03 17:29:36;;;;;;;17.65;8.07;;;26.80;42.50;;;;;;4888055;29;20048;-96
2023/07/03 17:32:03;;;;;;;24.80;7.22;;;26.90;43.20;;;;;;4889332;29;20091;-95
2023/07/03 17:34:31;;;;;;;19.67;10.40;;;26.80;43.20;;;;;;4887633;29;20052;-96
2023/07/03 17:36:58;;;;;;;17.92;7.93;;;26.70;43.90;;;;;;4902219;29;20475;-96
2023/07/03 17:39:25;;;;;;;15.33;7.40;;;26.60;44.20;;;;;;4887358;29;20048;-96
2023/07/03 17:41:53;;;;;;;18.60;7.78;;;26.60;44.10;;;;;;4887119;29;20051;-96
2023/07/03 17:44:20;;;;;;;21.58;7.60;;;26.60;44.80;;;;;;4902723;29;20072;-96
2023/07/03 17:46:47;;;;;;;24.63;8.10;;;26.50;45.80;;;;;;4888723;29;20075;-96
2023/07/03 17:49:14;;;;;;;20.80;8.30;;;26.40;44.80;;;;;;4889856;29;20054;-96
2023/07/03 17:51:41;;;;;;;17.73;8.33;;;26.10;45.00;;;;;;4887054;29;20083;-96
2023/07/03 17:54:08;;;;;;;24.92;14.55;;;26.20;45.40;;;;;;4902486;29;20059;-96
2023/07/03 17:56:42;;;;;;;18.90;9.15;;;26.10;45.30;;;;;;4888514;29;20502;-93
2023/07/03 17:59:09;;;;;;;110.15;77.55;;;26.00;44.20;;;;;;4889440;29;20506;-96
2023/07/03 18:01:37;;;;;;;29.77;17.13;;;25.80;44.80;;;;;;4904296;29;20087;-96
2023/07/03 18:04:05;;;;;;;19.97;10.37;;;25.80;45.20;;;;;;4890931;29;20044;-96
2023/07/03 18:06:34;;;;;;;20.33;10.13;;;25.80;45.00;;;;;;4892212;29;20414;-96
2023/07/03 18:09:02;;;;;;;18.55;8.57;;;25.70;45.80;;;;;;4908629;29;20075;-96
2023/07/03 18:11:29;;;;;;;19.83;8.77;;;25.60;45.90;;;;;;4908452;29;20052;-96
2023/07/03 18:13:57;;;;;;;16.17;7.78;;;25.60;45.80;;;;;;4889412;29;20052;-96
2023/07/03 18:16:24;;;;;;;17.73;7.67;;;25.50;45.90;;;;;;4889978;29;20058;-96
2023/07/03 18:18:52;;;;;;;20.92;8.23;;;25.50;45.50;;;;;;4891009;29;20040;-96
2023/07/03 18:21:20;;;;;;;18.73;7.78;;;25.50;45.70;;;;;;4895353;29;20052;-96
2023/07/03 18:23:48;;;;;;;17.73;8.30;;;25.40;46.30;;;;;;4910196;29;20104;-96
2023/07/03 18:26:17;;;;;;;18.17;8.30;;;25.50;46.50;;;;;;4895134;29;20399;-96
2023/07/03 18:28:45;;;;;;;16.03;7.70;;;25.40;46.60;;;;;;4896103;29;20076;-96
2023/07/03 18:31:13;;;;;;;18.77;7.90;;;25.30;46.50;;;;;;4909690;29;20048;-96
2023/07/03 18:33:40;;;;;;;15.65;7.50;;;25.30;46.40;;;;;;4898498;29;20052;-96
2023/07/03 18:36:09;;;;;;;17.48;8.05;;;25.30;46.80;;;;;;4900411;29;20052;-96
2023/07/03 18:38:37;;;;;;;64.10;9.48;;;25.30;47.20;;;;;;4884303;29;20036;-96
2023/07/03 18:41:06;;;;;;;23.70;8.00;;;25.10;47.50;;;;;;5191794;23;20063;-96
2023/07/03 18:43:34;;;;;;;17.77;7.68;;;25.10;47.40;;;;;;4896747;29;20116;-96
2023/07/03 18:46:09;;;;;;;17.30;7.68;;;25.10;47.70;;;;;;4883123;29;20059;-96
2023/07/03 18:48:45;;;;;;;19.83;8.52;;;25.10;47.70;;;;;;4880160;29;20081;-96
2023/07/03 18:51:21;;;;;;;19.25;7.95;;;25.10;47.10;;;;;;4875846;29;20097;-96
2023/07/03 18:57:40;;;;;;;16.65;7.75;;;25.00;47.70;;;;;;5055303;23;20032;-96
2023/07/03 19:07:27;;;;;;;14.70;7.30;;;24.80;47.30;;;;;;5487777;23;20098;-96
2023/07/03 19:29:55;;;;;;;17.77;7.77;;;24.50;48.40;;;;;;4877171;29;20034;-96
2023/07/03 19:32:46;;;;;;;20.95;7.40;;;24.50;48.20;;;;;;4854040;29;20030;-96
2023/07/03 19:43:56;;;;;;;16.15;7.43;;;24.40;48.80;;;;;;4900557;29;20130;-96
2023/07/03 20:04:51;;;;;;;17.47;8.27;;;23.90;53.70;;;;;;4867057;29;20135;-96
2023/07/03 20:07:21;;;;;;;18.33;8.98;;;23.90;53.70;;;;;;4867920;29;20056;-96
2023/07/03 20:09:48;;;;;;;17.52;8.50;;;23.80;53.90;;;;;;4851801;29;20144;-96
2023/07/03 20:12:15;;;;;;;16.83;8.27;;;23.80;54.90;;;;;;4852197;29;20045;-95
2023/07/03 20:14:43;;;;;;;18.85;8.15;;;23.80;54.40;;;;;;4852905;29;20045;-96
2023/07/03 20:17:10;;;;;;;17.23;8.80;;;23.70;53.30;;;;;;4867623;29;20051;-95
2023/07/03 20:19:37;;;;;;;19.75;8.88;;;23.60;53.10;;;;;;4852204;29;20055;-96
2023/07/03 20:26:39;;;;;;;16.98;8.77;;;23.60;53.70;;;;;;4885029;29;20040;-96
2023/07/03 20:29:07;;;;;;;18.40;8.25;;;23.40;53.50;;;;;;4868639;29;20049;-95
2023/07/03 20:31:34;;;;;;;21.50;8.90;;;23.50;54.00;;;;;;4855255;29;20045;-95
2023/07/03 20:34:15;;;;;;;17.25;8.50;;;23.50;54.50;;;;;;4860591;29;20794;-96
2023/07/03 20:40:22;;;;;;;17.05;8.23;;;23.40;56.30;;;;;;5341951;23;20116;-96
2023/07/03 20:42:49;;;;;;;18.73;9.30;;;23.30;56.50;;;;;;4894130;29;20142;-96
2023/07/03 20:45:18;;;;;;;17.30;9.30;;;23.10;55.80;;;;;;4889957;29;20058;-96
2023/07/03 20:47:50;;;;;;;17.48;9.50;;;23.10;56.70;;;;;;4896662;29;20146;-96
2023/07/03 20:50:24;;;;;;;19.58;9.95;;;23.10;57.50;;;;;;4896588;29;20056;-96
2023/07/03 20:52:59;;;;;;;16.95;8.90;;;23.00;58.40;;;;;;4914512;29;20082;-96
2023/07/03 20:55:42;;;;;;;22.33;8.25;;;22.90;59.00;;;;;;4903779;29;20115;-96
2023/07/03 20:58:11;;;;;;;17.40;8.83;;;22.80;59.50;;;;;;4900242;29;20048;-96
2023/07/03 21:00:38;;;;;;;19.90;9.15;;;22.60;58.60;;;;;;4902011;29;21247;-96
2023/07/03 21:03:06;;;;;;;18.05;8.55;;;22.60;59.40;;;;;;4901292;29;20048;-96
2023/07/03 21:05:39;;;;;;;16.77;8.80;;;22.60;59.20;;;;;;4897155;29;20044;-96
2023/07/03 21:08:29;;;;;;;18.73;9.48;;;22.60;60.10;;;;;;4911659;29;20052;-96
2023/07/03 21:11:00;;;;;;;19.27;9.43;;;22.50;60.80;;;;;;4908660;29;20048;-96
2023/07/03 21:13:28;;;;;;;20.45;9.85;;;22.40;60.00;;;;;;4904143;29;20044;-96
2023/07/03 21:16:00;;;;;;;19.98;8.27;;;22.30;60.30;;;;;;4902841;29;20099;-96
2023/07/03 21:18:30;;;;;;;19.02;8.82;;;22.30;60.70;;;;;;4903388;29;20044;-96
2023/07/03 21:21:12;;;;;;;19.02;8.63;;;22.30;61.00;;;;;;4905064;29;20440;-96
2023/07/03 21:23:41;;;;;;;19.07;8.77;;;22.30;61.20;;;;;;4913549;29;20111;-96
2023/07/03 21:26:11;;;;;;;17.30;8.73;;;22.20;61.00;;;;;;4897418;29;20103;-96
2023/07/03 21:28:39;;;;;;;17.88;8.95;;;22.20;60.70;;;;;;4899401;29;20051;-96
2023/07/03 21:31:09;;;;;;;19.15;9.02;;;22.20;61.50;;;;;;4898832;29;20048;-96
2023/07/03 21:33:37;;;;;;;19.17;8.55;;;22.20;60.90;;;;;;4909549;29;20392;-96
2023/07/03 21:36:18;;;;;;;19.47;9.20;;;22.10;59.80;;;;;;4896515;29;20056;-96
2023/07/03 21:38:51;;;;;;;20.63;8.93;;;22.10;60.80;;;;;;4909621;29;20537;-96
2023/07/03 21:41:21;;;;;;;18.02;8.60;;;22.10;60.20;;;;;;4903689;29;20123;-96
2023/07/03 21:44:02;;;;;;;20.40;8.48;;;22.00;59.40;;;;;;4922536;29;20112;-96
2023/07/03 21:46:38;;;;;;;17.95;8.15;;;22.10;59.60;;;;;;4904401;29;20052;-96
2023/07/03 21:49:11;;;;;;;20.73;8.80;;;22.00;59.70;;;;;;4889199;29;20056;-96
2023/07/03 21:51:55;;;;;;;20.83;9.18;;;22.00;60.30;;;;;;4906107;29;20048;-96
2023/07/03 21:54:25;;;;;;;17.73;7.85;;;22.00;60.00;;;;;;4920662;29;20056;-96
2023/07/03 21:56:53;;;;;;;17.10;8.07;;;21.80;59.80;;;;;;4899407;29;20047;-96
2023/07/03 21:59:21;;;;;;;16.45;8.05;;;21.80;60.10;;;;;;4898670;29;20537;-96
2023/07/03 22:01:54;;;;;;;15.57;7.67;;;21.80;60.00;;;;;;4918706;29;20044;-96
2023/07/03 22:04:25;;;;;;;21.58;8.90;;;21.90;60.30;;;;;;4912780;29;20071;-96
2023/07/03 22:06:53;;;;;;;15.82;7.65;;;21.70;60.40;;;;;;4893634;29;20052;-96
2023/07/03 22:09:21;;;;;;;19.27;8.65;;;21.80;61.00;;;;;;4908750;29;20052;-96
2023/07/03 22:12:06;;;;;;;18.50;7.78;;;21.80;60.40;;;;;;4907741;29;20056;-96
2023/07/03 22:14:34;;;;;;;18.40;8.03;;;21.80;60.90;;;;;;4890412;29;20570;-96
2023/07/03 22:17:01;;;;;;;21.45;8.60;;;21.80;60.90;;;;;;4889206;29;20052;-96
2023/07/03 22:19:28;;;;;;;17.35;8.23;;;21.70;61.30;;;;;;4888647;29;20486;-96
2023/07/03 22:21:57;;;;;;;16.10;7.57;;;21.80;61.60;;;;;;4887622;29;20052;-96
2023/07/03 22:24:24;;;;;;;20.08;8.70;;;21.80;61.80;;;;;;4887299;29;20059;-96
2023/07/03 22:26:51;;;;;;;18.40;8.77;;;21.80;62.00;;;;;;4887400;29;20143;-96
2023/07/03 22:29:18;;;;;;;18.27;8.43;;;21.80;61.50;;;;;;4887293;29;20103;-96
2023/07/03 22:31:45;;;;;;;18.15;8.48;;;21.80;61.10;;;;;;4887387;29;20556;-96
2023/07/03 22:34:13;;;;;;;17.75;7.90;;;21.80;61.00;;;;;;4887155;29;20048;-96
2023/07/03 22:36:40;;;;;;;17.10;8.20;;;21.80;61.30;;;;;;4887233;29;20498;-96
2023/07/03 22:39:07;;;;;;;15.07;7.67;;;21.70;61.40;;;;;;4887035;29;20048;-96
2023/07/03 22:41:35;;;;;;;17.00;8.43;;;21.60;61.60;;;;;;4887595;29;20048;-96
2023/07/03 22:44:02;;;;;;;17.77;7.72;;;21.70;62.00;;;;;;4887064;29;20078;-96
2023/07/03 22:46:29;;;;;;;17.17;8.25;;;21.80;61.50;;;;;;4886902;29;20044;-96
2023/07/03 22:48:56;;;;;;;16.85;8.57;;;21.80;61.80;;;;;;4887096;29;20059;-96
2023/07/03 22:51:24;;;;;;;18.43;8.53;;;21.80;61.20;;;;;;4888289;29;20048;-96
2023/07/03 22:53:51;;;;;;;16.83;7.47;;;21.80;61.80;;;;;;4903868;29;20486;-96
2023/07/03 22:56:18;;;;;;;16.98;8.32;;;21.90;61.70;;;;;;4902745;29;20055;-96
2023/07/03 22:58:45;;;;;;;17.05;8.25;;;21.80;61.60;;;;;;4888366;29;20079;-96